| Date | Time | Temp. (oF) | Dew Point (oF) | Rel. Hum. (%) | Press. (in.) | Wind Dir. | Wind Speed (mph) | Hourly Rainfall (in.) |
|
|---|---|---|---|---|---|---|---|---|---|
| 1 | 09/19 | 00:00 | 55 | 46 | 72 | 30.14 | NNW | 7 | 0.00 |
| 2 | 09/18 | 23:00 | 57 | 48 | 72 | 30.12 | N | 6 | 0.00 |
| 3 | 09/18 | 22:00 | 58 | 50 | 76 | 30.09 | NNW | 4 | 0.00 |
| 4 | 09/18 | 21:00 | 60 | 52 | 76 | 30.07 | NNW | 3 | 0.00 |
| 5 | 09/18 | 20:00 | 62 | 54 | 76 | 30.03 | N | 5 | 0.00 |
| 6 | 09/18 | 19:00 | 65 | 57 | 77 | 29.99 | NNW | 6 | 0.00 |
| 7 | 09/18 | 18:00 | 66 | 57 | 75 | 29.94 | N | 8 | 0.00 |
| 8 | 09/18 | 17:00 | 66 | 58 | 76 | 29.92 | N | 20 | 0.00 |
| 9 | 09/18 | 16:00 | 66 | 58 | 77 | 29.90 | N | 16 | 0.00 |
| 10 | 09/18 | 15:00 | 65 | 58 | 79 | 29.88 | N | 8 | 0.00 |
| 11 | 09/18 | 14:00 | 65 | 59 | 82 | 29.85 | N | 20 | 0.00 |
| 12 | 09/18 | 13:00 | 65 | 60 | 86 | 29.83 | NNE | 8 | 0.00 |
| 13 | 09/18 | 12:00 | 61 | 60 | 100 | 29.82 | NNW | 20 | 0.01 |
| 14 | 09/18 | 11:00 | 59 | 59 | 100 | 29.80 | NNW | 8 | 0.00 |
| 15 | miss | miss | miss | miss | miss | miss | miss | miss | |
| 16 | 09/18 | 10:06 | 63 | 63 | 100 | 29.76 | NNE | 6 | 0.02 |
| 17 | miss | miss | miss | miss | miss | miss | miss | miss | |
| 18 | 09/18 | 10:04 | 63 | 63 | 100 | 29.76 | NNW | 7 | 0.01 |
| 19 | miss | miss | miss | miss | miss | miss | miss | miss | |
| 20 | 09/18 | 10:02 | 63 | 63 | 100 | 29.76 | NW | 4 | 0.01 |
| 21 | miss | miss | miss | miss | miss | miss | miss | miss | |
| 22 | 09/18 | 10:00 | 63 | 63 | 100 | 29.76 | NW | 4 | 0.11 |
| 23 | 09/18 | 09:59 | 63 | 63 | 100 | 29.76 | N | 14 | 0.11 |
| 24 | 09/18 | 09:58 | 63 | 63 | 100 | 29.76 | NW | 7 | 0.11 |
| 25 | miss | miss | miss | miss | miss | miss | miss | miss | |
| 26 | 09/18 | 09:57 | 63 | 63 | 100 | 29.76 | NW | 4 | 0.11 |
| 27 | miss | miss | miss | miss | miss | miss | miss | miss | |
| 28 | 09/18 | 09:57 | 63 | 63 | 100 | 29.76 | NW | 4 | 0.11 |
| 29 | miss | miss | miss | miss | miss | miss | miss | miss | |
| 30 | 09/18 | 09:57 | 63 | 63 | 100 | 29.76 | NW | 4 | 0.11 |
| 31 | miss | miss | miss | miss | miss | miss | miss | miss | |
| 32 | 09/18 | 09:57 | 63 | 63 | 100 | 29.76 | NW | 4 | 0.11 |
| 33 | miss | miss | miss | miss | miss | miss | miss | miss | |
| 34 | 09/18 | 09:57 | 63 | 63 | 100 | 29.76 | NW | 4 | 0.11 |
| 35 | miss | miss | miss | miss | miss | miss | miss | miss | |
| 36 | 09/18 | 09:57 | 63 | 63 | 100 | 29.76 | NW | 4 | 0.11 |
| 37 | miss | miss | miss | miss | miss | miss | miss | miss | |
| 38 | 09/18 | 09:57 | 63 | 63 | 100 | 29.76 | NW | 4 | 0.11 |
| 39 | 09/18 | 09:57 | 63 | 63 | 100 | 29.76 | NW | 4 | 0.11 |
| 40 | 09/18 | 09:00 | 62 | 62 | 100 | 29.71 | NNE | 14 | 0.03 |
| 41 | 09/18 | 08:00 | 62 | 62 | 100 | 29.66 | NNE | 21 | 0.24 |
| 42 | 09/18 | 07:00 | 62 | 62 | 100 | 29.63 | N | 17 | 0.13 |
| 43 | 09/18 | 06:00 | 65 | 64 | 100 | 29.58 | NNW | 17 | 0.01 |
| 44 | 09/18 | 05:00 | 71 | 71 | 100 | 29.54 | SSW | 3 | 0.12 |
| 45 | 09/18 | 04:00 | 70 | 69 | 100 | 29.52 | SSW | 7 | 0.29 |
| 46 | 09/18 | 03:00 | 71 | 71 | 100 | 29.57 | NNW | 5 | 0.20 |
| 47 | 09/18 | 02:00 | 75 | 75 | 100 | 29.59 | ESE | 7 | 0.10 |
| 48 | 09/18 | 01:00 | 75 | 75 | 100 | 29.62 | ESE | 20 | 0.18 |
| 49 | 09/18 | 00:00 | 76 | 76 | 100 | 29.64 | SE | 7 | 0.00 |
| 50 | miss | miss | miss | miss | miss | miss | miss | miss | |
| 51 | 09/17 | 23:49 | 76 | 75 | 99 | 29.64 | E | 8 | 0.00 |
| 52 | miss | miss | miss | miss | miss | miss | miss | miss | |
| 53 | 09/17 | 23:47 | 76 | 75 | 99 | 29.64 | ESE | 7 | 0.00 |
| 54 | miss | miss | miss | miss | miss | miss | miss | miss | |
| 55 | 09/17 | 23:45 | 76 | 75 | 99 | 29.64 | SE | 10 | 0.00 |
| 56 | miss | miss | miss | miss | miss | miss | miss | miss | |
| 57 | 09/17 | 23:43 | 76 | 75 | 99 | 29.64 | ESE | 6 | 0.00 |
| 58 | miss | miss | miss | miss | miss | miss | miss | miss | |
| 59 | 09/17 | 23:41 | 76 | 75 | 99 | 29.64 | ESE | 7 | 0.00 |
| 60 | miss | miss | miss | miss | miss | miss | miss | miss | |
| 61 | 09/17 | 23:39 | 76 | 75 | 99 | 29.64 | SE | 10 | 0.00 |
| 62 | miss | miss | miss | miss | miss | miss | miss | miss | |
| 63 | 09/17 | 23:37 | 76 | 75 | 99 | 29.65 | ESE | 17 | 0.00 |
| 64 | miss | miss | miss | miss | miss | miss | miss | miss | |
| 65 | 09/17 | 23:35 | 76 | 75 | 99 | 29.65 | SE | 11 | 0.00 |
| 66 | miss | miss | miss | miss | miss | miss | miss | miss | |
| 67 | 09/17 | 23:33 | 76 | 75 | 99 | 29.65 | ESE | 11 | 0.00 |
| 68 | miss | miss | miss | miss | miss | miss | miss | miss | |
| 69 | 09/17 | 23:31 | 76 | 75 | 99 | 29.65 | S | 7 | 0.00 |
| 70 | miss | miss | miss | miss | miss | miss | miss | miss | |
| 71 | 09/17 | 23:29 | 76 | 75 | 99 | 29.65 | ESE | 7 | 0.00 |
| 72 | miss | miss | miss | miss | miss | miss | miss | miss | |
| 73 | 09/17 | 23:27 | 76 | 75 | 99 | 29.65 | ESE | 4 | 0.00 |
| 74 | 09/17 | 23:00 | 75 | 75 | 100 | 29.65 | E | 10 | 0.00 |
| 75 | 09/17 | 22:00 | 75 | 75 | 100 | 29.69 | ESE | 6 | 0.02 |
| 76 | 09/17 | 21:00 | 75 | 74 | 99 | 29.72 | E | 5 | 0.00 |
| 77 | 09/17 | 20:00 | 75 | 74 | 98 | 29.74 | ENE | 4 | 0.00 |
| 78 | 09/17 | 19:00 | 75 | 74 | 97 | 29.74 | ESE | 5 | 0.00 |
| 79 | 09/17 | 18:00 | 76 | 74 | 96 | 29.75 | E | 8 | 0.00 |
| 80 | 09/17 | 17:00 | 76 | 74 | 94 | 29.77 | SE | 2 | 0.00 |
| 81 | 09/17 | 16:00 | 76 | 73 | 93 | 29.80 | ESE | 10 | 0.00 |
| 82 | 09/17 | 15:00 | 77 | 73 | 90 | 29.83 | E | 8 | 0.00 |
| 83 | 09/17 | 14:00 | 76 | 72 | 89 | 29.85 | SSE | 4 | 0.00 |
| 84 | 09/17 | 13:00 | 75 | 72 | 93 | 29.89 | SE | 7 | 0.00 |
| 85 | 09/17 | 12:00 | 73 | 72 | 100 | 29.91 | ESE | 3 | 0.00 |
| 86 | 09/17 | 11:00 | 71 | 71 | 100 | 29.95 | E | 3 | 0.00 |
| 87 | 09/17 | 10:00 | 70 | 69 | 100 | 29.97 | SSW | 0 | 0.00 |
| 88 | 09/17 | 09:00 | 69 | 68 | 100 | 29.98 | NE | 0 | 0.00 |
| 89 | 09/17 | 08:00 | 68 | 68 | 100 | 29.99 | ENE | 0 | 0.00 |
| 90 | 09/17 | 07:00 | 67 | 67 | 100 | 29.98 | SSE | 0 | 0.00 |
| 91 | 09/17 | 06:00 | 68 | 68 | 100 | 29.97 | E | 0 | 0.01 |
| 92 | 09/17 | 05:00 | 68 | 68 | 100 | 29.98 | SW | 0 | 0.00 |
| 93 | 09/17 | 04:00 | 68 | 68 | 100 | 29.97 | SW | 0 | 0.00 |
| 94 | 09/17 | 03:00 | 68 | 68 | 100 | 29.98 | S | 0 | 0.00 |
| 95 | 09/17 | 02:00 | 69 | 68 | 100 | 30.01 | S | 0 | 0.00 |
| 96 | 09/17 | 01:00 | 69 | 68 | 100 | 30.02 | S | 1 | 0.00 |
| 97 | 09/17 | 00:00 | 69 | 68 | 100 | 30.04 | SW | 2 | -0.03 |